Time;durP1;ratioP1;P1;durP2;ratioP2;P2;SDS_P1;SDS_P2;PMS_P1;PMS_P2;Temp;Humidity;BMP_temperature;BMP_pressure;BME280_temperature;BME280_humidity;BME280_pressure;Samples;Min_cycle;Max_cycle;Signal;HPM_P1;HPM_P2
2021/07/03 00:02:13;;;;;;;1.75;1.65;;;;;;;20.42;57.96;99684.81;4464753;31;33156;-81
2021/07/03 00:04:42;;;;;;;3.22;1.75;;;;;;;20.83;56.79;99685.72;4484867;31;33893;-81
2021/07/03 00:07:10;;;;;;;9.10;2.00;;;;;;;20.95;56.26;99690.88;4462617;31;32213;-81
2021/07/03 00:09:38;;;;;;;2.00;1.70;;;;;;;20.65;57.27;99683.69;4471792;31;33071;-82
2021/07/03 00:12:07;;;;;;;2.05;1.45;;;;;;;20.69;57.15;99679.75;4479167;31;33082;-81
2021/07/03 00:14:36;;;;;;;1.87;1.77;;;;;;;20.60;57.50;99687.75;4473750;31;34058;-82
2021/07/03 00:17:04;;;;;;;1.77;1.67;;;;;;;20.47;57.91;99682.63;4462305;31;33844;-81
2021/07/03 00:19:32;;;;;;;2.08;1.87;;;;;;;20.53;57.83;99674.03;4484421;31;33219;-83
2021/07/03 00:22:00;;;;;;;1.85;1.75;;;;;;;20.52;57.99;99684.91;4470357;31;34808;-82
2021/07/03 00:24:29;;;;;;;2.62;2.00;;;;;;;20.82;56.90;99678.69;4486458;31;33628;-82
2021/07/03 00:27:00;;;;;;;2.17;1.60;;;;;;;20.40;58.34;99676.03;4478870;31;32941;-82
2021/07/03 00:29:28;;;;;;;2.85;1.80;;;;;;;20.75;57.13;99683.75;4468831;31;34128;-81
2021/07/03 00:32:03;;;;;;;2.35;2.15;;;;;;;20.64;57.48;99673.94;4473514;31;33390;-84
2021/07/03 00:34:31;;;;;;;2.00;1.62;;;;;;;20.54;58.04;99678.41;4470965;31;33535;-84
2021/07/03 00:36:59;;;;;;;3.87;2.00;;;;;;;20.84;56.89;99676.69;4481582;31;33387;-83
2021/07/03 00:39:28;;;;;;;2.00;1.77;;;;;;;20.60;57.67;99677.00;4464292;31;32882;-84
2021/07/03 00:41:56;;;;;;;3.42;2.03;;;;;;;20.43;58.45;99683.81;4470226;31;35130;-83
2021/07/03 00:44:29;;;;;;;4.10;2.17;;;;;;;20.35;58.45;99684.47;4461164;31;34171;-83
2021/07/03 00:47:01;;;;;;;2.30;2.10;;;;;;;20.42;58.29;99679.44;4451848;31;32360;-82
2021/07/03 00:49:30;;;;;;;;;;;;;;;20.37;58.27;99681.69;4483810;31;34310;-82
2021/07/03 00:51:59;;;;;;;2.92;2.42;;;;;;;20.40;58.43;99676.88;4462787;32;34353;-82
2021/07/03 00:54:31;;;;;;;5.32;2.78;;;;;;;20.54;57.71;99678.41;4460042;31;32954;-82
2021/07/03 00:57:05;;;;;;;3.25;2.42;;;;;;;20.55;57.62;99684.62;4480444;32;33728;-82
2021/07/03 00:59:41;;;;;;;2.28;1.70;;;;;;;20.02;59.34;99682.84;4481561;31;33883;-83
2021/07/03 01:02:12;;;;;;;2.10;1.90;;;;;;;20.55;57.65;99685.47;4467366;31;33177;-82
2021/07/03 01:04:41;;;;;;;2.50;2.30;;;;;;;20.47;57.86;99687.97;4479364;31;33181;-84
2021/07/03 01:07:11;;;;;;;2.55;2.35;;;;;;;20.55;57.53;99680.09;4468848;31;33353;-84
2021/07/03 01:09:39;;;;;;;2.40;1.67;;;;;;;20.69;57.01;99677.06;4459357;31;33280;-84
2021/07/03 01:12:09;;;;;;;2.67;2.35;;;;;;;20.47;57.73;99682.63;4456375;31;33895;-84
2021/07/03 01:14:44;;;;;;;4.82;1.95;;;;;;;20.70;56.91;99678.78;4471044;31;32503;-84
2021/07/03 01:17:14;;;;;;;3.37;2.22;;;;;;;20.74;56.79;99684.69;4459720;32;33832;-84
2021/07/03 01:19:43;;;;;;;3.95;2.10;;;;;;;20.55;57.39;99690.81;4480264;31;33111;-83
2021/07/03 01:22:13;;;;;;;2.40;2.20;;;;;;;20.53;57.45;99690.13;4470199;31;34371;-84
2021/07/03 01:24:42;;;;;;;5.22;2.40;;;;;;;20.18;58.47;99704.72;4457144;31;33932;-82
2021/07/03 01:27:12;;;;;;;2.33;2.12;;;;;;;20.37;58.14;99697.78;4458922;31;34160;-82
2021/07/03 01:29:43;;;;;;;2.00;1.80;;;;;;;19.87;59.76;99705.59;4470261;31;32770;-83
2021/07/03 01:32:12;;;;;;;3.30;2.00;;;;;;;20.07;59.08;99702.06;4475642;31;33242;-82
2021/07/03 01:34:40;;;;;;;2.42;2.22;;;;;;;20.09;59.05;99699.28;4470927;31;32683;-82
2021/07/03 01:37:08;;;;;;;2.40;2.20;;;;;;;20.04;59.10;99702.34;4476635;31;32976;-82
2021/07/03 01:39:39;;;;;;;2.22;1.83;;;;;;;19.77;60.14;99694.78;4487957;31;34598;-82
2021/07/03 01:42:09;;;;;;;2.40;2.20;;;;;;;19.97;59.51;99698.47;4469308;31;33413;-84
2021/07/03 01:44:37;;;;;;;3.00;1.95;;;;;;;19.94;59.64;99701.44;4486958;31;33610;-84
2021/07/03 01:47:05;;;;;;;2.30;2.10;;;;;;;19.78;60.27;99695.63;4477958;31;32305;-84
2021/07/03 01:49:42;;;;;;;2.12;1.70;;;;;;;19.83;59.99;99696.94;4468637;32;34520;-84
2021/07/03 01:52:10;;;;;;;2.03;1.70;;;;;;;19.79;60.17;99700.00;4464750;31;34501;-84
2021/07/03 01:54:38;;;;;;;2.25;2.00;;;;;;;19.79;60.16;99691.97;4478786;31;34538;-84
2021/07/03 01:57:05;;;;;;;2.20;2.00;;;;;;;20.04;59.37;99691.62;4459115;31;32698;-84
2021/07/03 01:59:35;;;;;;;2.97;1.98;;;;;;;19.94;59.50;99690.72;4470080;32;32966;-84
2021/07/03 02:02:04;;;;;;;2.08;1.90;;;;;;;19.88;59.89;99696.56;4469749;31;35116;-84
2021/07/03 02:04:33;;;;;;;2.10;1.90;;;;;;;19.75;60.33;99701.25;4466828;32;33938;-84
2021/07/03 02:07:01;;;;;;;2.67;2.30;;;;;;;20.08;59.29;99709.16;4467601;31;34410;-84
2021/07/03 02:09:30;;;;;;;3.05;2.12;;;;;;;19.76;60.35;99702.97;4466488;31;33498;-84
2021/07/03 02:11:58;;;;;;;2.47;2.12;;;;;;;19.53;61.08;99708.34;4456747;31;33492;-84
2021/07/03 02:14:27;;;;;;;3.00;1.90;;;;;;;19.32;61.82;99710.09;4481650;31;33845;-84
2021/07/03 02:16:55;;;;;;;3.28;2.37;;;;;;;19.63;60.74;99712.00;4446499;31;33906;-83
2021/07/03 02:19:24;;;;;;;2.70;2.10;;;;;;;19.13;62.54;99706.25;4464023;31;34390;-83
2021/07/03 02:21:52;;;;;;;2.30;2.10;;;;;;;19.35;62.05;99715.22;4476337;32;36040;-83
2021/07/03 02:24:22;;;;;;;2.67;2.47;;;;;;;19.72;60.76;99701.50;4464942;31;33750;-84
2021/07/03 02:26:50;;;;;;;2.10;1.92;;;;;;;19.65;61.07;99696.69;4475340;31;33149;-84
2021/07/03 02:29:18;;;;;;;2.92;2.62;;;;;;;19.73;60.76;99703.22;4465524;31;34428;-84
2021/07/03 02:31:46;;;;;;;1.90;1.80;;;;;;;19.81;60.51;99700.75;4465938;31;33881;-83
2021/07/03 02:34:15;;;;;;;4.05;2.15;;;;;;;19.46;61.64;99704.47;4463702;31;33603;-83
2021/07/03 02:36:43;;;;;;;2.92;2.62;;;;;;;19.59;61.34;99702.50;4450027;31;33093;-84
2021/07/03 02:39:11;;;;;;;2.92;2.60;;;;;;;19.63;61.28;99698.63;4476212;31;34419;-84
2021/07/03 02:41:40;;;;;;;3.20;2.72;;;;;;;19.30;62.44;99706.72;4478962;31;33595;-84
2021/07/03 02:44:08;;;;;;;3.58;2.42;;;;;;;19.53;61.73;99700.31;4480886;31;33436;-83
2021/07/03 02:46:36;;;;;;;3.00;2.70;;;;;;;19.11;63.17;99708.19;4453081;31;33193;-84
2021/07/03 02:49:04;;;;;;;3.45;2.47;;;;;;;19.05;63.60;99708.69;4478697;31;33943;-83
2021/07/03 02:51:33;;;;;;;2.62;2.42;;;;;;;19.26;62.91;99710.59;4480684;31;34069;-83
2021/07/03 02:54:01;;;;;;;3.28;2.83;;;;;;;19.30;62.81;99714.75;4464472;31;32710;-83
2021/07/03 02:56:29;;;;;;;2.95;2.60;;;;;;;19.06;63.67;99714.91;4471828;31;34104;-84
2021/07/03 02:58:57;;;;;;;4.75;2.90;;;;;;;19.12;63.52;99720.59;4460950;32;35253;-83
2021/07/03 03:01:25;;;;;;;4.55;2.47;;;;;;;19.35;62.58;99715.22;4464257;31;33866;-84
2021/07/03 03:03:53;;;;;;;2.78;2.53;;;;;;;19.63;61.66;99725.41;4483426;31;33542;-83
2021/07/03 03:06:21;;;;;;;5.72;3.12;;;;;;;19.68;61.49;99728.53;4465803;31;32562;-83
2021/07/03 03:08:50;;;;;;;4.28;2.30;;;;;;;19.75;61.23;99723.56;4465805;31;33873;-83
2021/07/03 03:11:18;;;;;;;4.57;2.50;;;;;;;19.30;62.85;99731.66;4458457;31;33511;-85
2021/07/03 03:13:46;;;;;;;2.90;2.60;;;;;;;19.44;62.41;99728.69;4465789;31;32974;-85
2021/07/03 03:16:15;;;;;;;2.95;2.62;;;;;;;19.22;63.17;99719.84;4459615;32;33049;-85
2021/07/03 03:18:42;;;;;;;3.28;2.97;;;;;;;19.10;63.59;99733.25;4472356;31;33611;-84
2021/07/03 03:21:11;;;;;;;3.33;2.55;;;;;;;18.97;64.07;99732.53;4470114;31;32954;-83
2021/07/03 03:23:39;;;;;;;3.83;2.90;;;;;;;19.05;63.89;99723.91;4464622;31;33974;-84
2021/07/03 03:26:07;;;;;;;3.20;3.00;;;;;;;19.18;63.24;99722.81;4473157;32;33073;-84
2021/07/03 03:28:37;;;;;;;3.60;3.30;;;;;;;19.34;62.93;99734.94;4461620;31;33323;-84
2021/07/03 03:31:06;;;;;;;3.35;2.97;;;;;;;19.37;62.68;99734.66;4456294;31;34100;-84
2021/07/03 03:33:34;;;;;;;3.05;2.75;;;;;;;19.14;63.88;99734.72;4467777;31;33171;-84
2021/07/03 03:36:14;;;;;;;2.95;2.65;;;;;;;19.29;63.20;99726.44;4467628;31;32107;-84
2021/07/03 03:38:43;;;;;;;2.87;2.58;;;;;;;19.20;63.86;99728.03;4465062;31;33815;-84
2021/07/03 03:41:12;;;;;;;4.35;2.80;;;;;;;19.61;62.34;99726.53;4476617;31;34468;-83
2021/07/03 03:43:40;;;;;;;3.30;3.00;;;;;;;19.43;63.05;99727.00;4482927;31;33985;-84
2021/07/03 03:46:10;;;;;;;3.15;2.85;;;;;;;19.87;61.65;99727.03;4489012;31;34243;-84
2021/07/03 03:48:39;;;;;;;3.72;3.10;;;;;;;19.57;62.79;99731.25;4457244;31;34060;-84
2021/07/03 03:51:09;;;;;;;3.20;2.90;;;;;;;19.44;63.34;99735.88;4487005;31;34953;-84
2021/07/03 03:53:37;;;;;;;5.53;3.92;;;;;;;19.73;62.38;99730.84;4452743;31;32966;-85
2021/07/03 03:56:05;;;;;;;4.07;3.67;;;;;;;19.61;62.78;99735.41;4465087;31;32137;-83
2021/07/03 03:58:33;;;;;;;5.57;3.12;;;;;;;19.92;61.89;99730.16;4488092;31;33945;-83
2021/07/03 04:01:02;;;;;;;3.50;3.05;;;;;;;20.25;61.05;99731.00;4448492;31;34235;-82
2021/07/03 04:03:30;;;;;;;3.65;3.35;;;;;;;20.32;60.82;99730.34;4480910;32;33969;-83
2021/07/03 04:05:58;;;;;;;3.45;3.17;;;;;;;20.09;61.27;99734.13;4460206;31;33526;-82
2021/07/03 04:08:34;;;;;;;5.30;2.80;;;;;;;19.82;62.58;99735.44;4477528;31;33854;-83
2021/07/03 04:11:03;;;;;;;3.65;3.35;;;;;;;19.98;61.81;99720.75;4469519;31;34637;-83
2021/07/03 04:13:31;;;;;;;3.83;2.85;;;;;;;20.19;61.14;99725.16;4480440;31;33668;-83
2021/07/03 04:15:59;;;;;;;4.62;3.30;;;;;;;19.67;63.23;99726.84;4467091;31;33375;-83
2021/07/03 04:18:27;;;;;;;4.07;3.50;;;;;;;20.12;61.55;99732.00;4454494;31;32773;-83
2021/07/03 04:20:56;;;;;;;8.25;4.75;;;;;;;20.11;61.69;99727.63;4464646;31;33035;-83
2021/07/03 04:23:23;;;;;;;4.50;4.05;;;;;;;19.97;62.23;99721.75;4463359;31;32947;-83
2021/07/03 04:25:51;;;;;;;4.72;3.40;;;;;;;20.01;62.08;99728.56;4464352;31;32329;-83
2021/07/03 04:28:19;;;;;;;5.30;4.07;;;;;;;20.16;61.63;99717.38;4473837;31;33974;-83
2021/07/03 04:30:47;;;;;;;4.82;4.07;;;;;;;20.13;61.88;99716.78;4468455;32;34528;-83
2021/07/03 04:33:15;;;;;;;5.30;4.53;;;;;;;19.79;62.88;99718.75;4457131;31;33731;-83
2021/07/03 04:35:42;;;;;;;4.25;3.83;;;;;;;20.13;61.91;99712.28;4466335;31;33501;-83
2021/07/03 04:38:10;;;;;;;5.32;3.90;;;;;;;19.92;62.75;99708.72;4497072;31;33915;-83
2021/07/03 04:40:38;;;;;;;6.43;4.62;;;;;;;19.95;62.72;99706.66;4474538;31;33666;-83
2021/07/03 04:43:06;;;;;;;4.82;4.03;;;;;;;19.76;63.82;99713.69;4469138;31;34041;-83
2021/07/03 04:45:34;;;;;;;4.47;4.07;;;;;;;20.07;62.63;99707.44;4472667;32;33321;-84
2021/07/03 04:48:02;;;;;;;5.10;4.18;;;;;;;20.10;62.55;99704.50;4464009;31;33802;-83
2021/07/03 04:50:33;;;;;;;5.45;4.12;;;;;;;20.21;62.09;99699.06;4466190;31;34292;-83
2021/07/03 04:53:01;;;;;;;6.32;4.60;;;;;;;20.26;61.94;99695.16;4461973;31;34147;-84
2021/07/03 04:55:29;;;;;;;8.43;4.95;;;;;;;20.23;62.23;99692.75;4462301;31;36288;-84
2021/07/03 04:57:57;;;;;;;5.55;4.93;;;;;;;20.12;62.70;99705.22;4481374;31;33870;-84
2021/07/03 05:00:25;;;;;;;5.25;4.78;;;;;;;20.18;62.56;99704.72;4477364;31;32097;-83
2021/07/03 05:02:52;;;;;;;5.12;4.35;;;;;;;20.36;62.01;99702.25;4471760;31;32128;-83
2021/07/03 05:05:20;;;;;;;5.40;4.90;;;;;;;20.18;62.80;99710.06;4484881;31;31258;-84
2021/07/03 05:07:48;;;;;;;7.75;5.65;;;;;;;20.24;62.36;99711.37;4466515;31;34164;-84
2021/07/03 05:10:16;;;;;;;5.70;5.10;;;;;;;20.15;62.69;99704.97;4456203;31;33905;-83
2021/07/03 05:12:44;;;;;;;7.00;6.03;;;;;;;20.31;62.26;99704.50;4461460;32;33836;-84
2021/07/03 05:15:12;;;;;;;5.68;4.78;;;;;;;20.53;61.44;99706.22;4468932;31;34013;-84
2021/07/03 05:17:40;;;;;;;6.30;5.30;;;;;;;20.63;61.46;99698.22;4477003;31;32969;-84
2021/07/03 05:20:08;;;;;;;6.07;4.97;;;;;;;20.75;61.46;99685.56;4478705;31;34394;-84
2021/07/03 05:22:37;;;;;;;6.12;5.15;;;;;;;20.92;60.43;99684.94;4464470;32;34138;-84
2021/07/03 05:25:05;;;;;;;7.22;4.75;;;;;;;21.09;60.31;99686.97;4478690;31;32090;-84
2021/07/03 05:27:33;;;;;;;5.65;5.00;;;;;;;21.12;60.79;99689.34;4456417;31;34304;-84
2021/07/03 05:30:01;;;;;;;7.55;5.50;;;;;;;21.35;59.71;99699.91;4476952;31;34026;-84
2021/07/03 05:32:29;;;;;;;6.28;5.68;;;;;;;21.73;58.56;99699.13;4486568;31;33893;-84
2021/07/03 05:34:57;;;;;;;6.40;4.93;;;;;;;21.81;57.90;99690.34;4460392;31;33934;-84
2021/07/03 05:37:25;;;;;;;7.20;5.43;;;;;;;22.04;57.56;99690.91;4449981;32;34144;-84
2021/07/03 05:39:53;;;;;;;7.97;6.12;;;;;;;22.05;57.01;99698.00;4463140;32;33380;-84
2021/07/03 05:42:20;;;;;;;6.97;6.07;;;;;;;21.74;57.60;99690.06;4466967;31;33455;-84
2021/07/03 05:44:48;;;;;;;7.93;6.28;;;;;;;21.68;58.07;99688.78;4462084;32;30982;-84
2021/07/03 05:47:20;;;;;;;7.72;5.90;;;;;;;21.45;58.43;99687.34;4481279;31;32936;-83
2021/07/03 05:49:48;;;;;;;7.75;6.68;;;;;;;21.88;57.59;99691.47;4477074;31;33418;-83
2021/07/03 05:52:16;;;;;;;8.43;6.40;;;;;;;22.03;57.11;99692.75;4464552;31;33402;-84
2021/07/03 05:54:44;;;;;;;7.50;6.12;;;;;;;22.18;56.67;99688.66;4464143;32;32489;-83
2021/07/03 05:57:12;;;;;;;7.93;5.80;;;;;;;22.38;56.13;99694.84;4479552;31;33361;-82
2021/07/03 05:59:41;;;;;;;9.00;5.82;;;;;;;22.27;56.18;99696.87;4475891;31;33735;-82
2021/07/03 06:02:08;;;;;;;10.20;6.57;;;;;;;22.85;55.30;99697.53;4467053;31;31828;-82
2021/07/03 06:04:36;;;;;;;6.72;6.03;;;;;;;22.81;55.34;99695.28;4446724;31;33597;-83
2021/07/03 06:07:06;;;;;;;7.70;6.90;;;;;;;22.88;54.91;99702.63;4467777;31;34463;-82
2021/07/03 06:09:33;;;;;;;7.55;6.62;;;;;;;23.00;53.88;99706.00;4480160;31;34049;-82
2021/07/03 06:12:02;;;;;;;8.77;5.95;;;;;;;22.91;54.46;99707.75;4446867;31;33412;-82
2021/07/03 06:14:29;;;;;;;6.60;5.90;;;;;;;23.29;54.17;99705.00;4469167;31;33111;-82
2021/07/03 06:16:57;;;;;;;6.50;5.85;;;;;;;23.47;53.77;99706.72;4480801;31;32122;-82
2021/07/03 06:19:25;;;;;;;7.37;6.57;;;;;;;23.30;54.13;99698.63;4467110;31;33901;-82
2021/07/03 06:21:53;;;;;;;7.65;5.70;;;;;;;23.28;53.53;99698.78;4471779;31;34108;-82
2021/07/03 06:24:21;;;;;;;5.18;4.68;;;;;;;23.34;52.83;99698.16;4465779;31;33317;-83
2021/07/03 06:26:49;;;;;;;7.72;6.43;;;;;;;23.49;53.58;99699.34;4475571;31;34189;-83
2021/07/03 06:29:17;;;;;;;11.40;5.97;;;;;;;23.72;52.88;99699.78;4478564;31;35037;-83
2021/07/03 06:31:44;;;;;;;6.12;5.32;;;;;;;23.95;51.54;99696.63;4479862;31;32588;-82
2021/07/03 06:34:12;;;;;;;8.23;5.68;;;;;;;23.71;52.48;99698.09;4458453;31;33844;-82
2021/07/03 06:36:40;;;;;;;5.18;4.50;;;;;;;23.64;52.00;99688.94;4474252;31;33646;-82
2021/07/03 06:39:08;;;;;;;7.55;5.07;;;;;;;24.17;50.68;99681.81;4463687;31;34960;-82
2021/07/03 06:41:36;;;;;;;5.07;4.45;;;;;;;24.36;49.90;99678.94;4453944;31;34213;-82
2021/07/03 06:44:04;;;;;;;6.07;4.87;;;;;;;24.35;49.93;99681.75;4461608;31;33756;-81
2021/07/03 06:46:32;;;;;;;6.70;5.45;;;;;;;24.37;50.12;99674.38;4478831;31;33636;-82
2021/07/03 06:49:00;;;;;;;4.97;4.47;;;;;;;24.33;49.49;99678.38;4468091;31;33400;-82
2021/07/03 06:51:28;;;;;;;5.05;4.55;;;;;;;24.75;48.82;99673.94;4465269;31;32733;-82
2021/07/03 06:53:57;;;;;;;5.82;4.95;;;;;;;24.65;49.12;99672.38;4461519;31;34229;-82
2021/07/03 06:56:25;;;;;;;5.12;4.68;;;;;;;24.76;48.49;99675.63;4466501;31;32562;-82
2021/07/03 06:58:53;;;;;;;5.93;4.87;;;;;;;24.67;48.44;99673.87;4476005;31;34599;-82
2021/07/03 07:01:21;;;;;;;5.47;4.93;;;;;;;24.80;47.44;99683.41;4481341;31;33880;-82
2021/07/03 07:03:49;;;;;;;10.32;5.05;;;;;;;25.00;47.47;99679.44;4480690;31;34264;-84
2021/07/03 07:06:17;;;;;;;6.78;4.93;;;;;;;25.00;47.56;99677.59;4484151;31;34743;-83
2021/07/03 07:08:44;;;;;;;5.68;5.07;;;;;;;25.29;46.93;99688.00;4464679;31;33468;-82
2021/07/03 07:11:13;;;;;;;5.82;5.03;;;;;;;25.54;46.99;99679.97;4464960;32;35110;-81
2021/07/03 07:13:40;;;;;;;8.40;5.68;;;;;;;25.38;46.94;99678.06;4454974;31;32454;-81
2021/07/03 07:16:08;;;;;;;5.12;4.43;;;;;;;25.64;46.22;99674.44;4458141;31;33211;-82
2021/07/03 07:18:36;;;;;;;5.37;4.87;;;;;;;25.84;45.77;99685.81;4478613;31;34481;-81
2021/07/03 07:21:04;;;;;;;5.78;5.20;;;;;;;25.89;45.27;99686.16;4466680;31;33800;-82
2021/07/03 07:23:31;;;;;;;5.87;4.95;;;;;;;26.00;46.56;99685.81;4475889;31;33244;-82
2021/07/03 07:26:00;;;;;;;6.43;5.00;;;;;;;26.21;45.51;99693.41;4465218;32;34130;-82
2021/07/03 07:28:29;;;;;;;5.72;5.03;;;;;;;26.30;44.97;99693.25;4464223;31;34960;-82
2021/07/03 07:30:57;;;;;;;7.10;5.65;;;;;;;26.42;44.59;99696.44;4448875;31;32818;-82
2021/07/03 07:33:25;;;;;;;7.70;5.32;;;;;;;26.35;44.57;99698.16;4463581;32;33623;-81
2021/07/03 07:35:52;;;;;;;8.98;6.12;;;;;;;25.99;45.02;99708.47;4463399;31;32972;-82
2021/07/03 07:38:20;;;;;;;6.70;5.93;;;;;;;25.95;45.89;99709.81;4469772;31;34703;-82
2021/07/03 07:40:48;;;;;;;8.32;6.18;;;;;;;25.99;45.53;99705.75;4460986;31;33038;-81
2021/07/03 07:43:16;;;;;;;8.60;5.47;;;;;;;26.24;44.68;99715.56;4472916;31;33506;-82
2021/07/03 07:45:44;;;;;;;5.90;4.70;;;;;;;26.40;45.08;99713.88;4464584;31;33243;-82
2021/07/03 07:48:12;;;;;;;4.93;4.47;;;;;;;25.92;44.72;99708.31;4462556;31;34307;-82
2021/07/03 07:50:40;;;;;;;6.20;5.60;;;;;;;26.38;44.84;99721.31;4461419;31;33580;-82
2021/07/03 07:53:07;;;;;;;5.87;5.15;;;;;;;26.47;44.17;99714.91;4477609;31;32282;-81
2021/07/03 07:55:35;;;;;;;5.65;4.65;;;;;;;26.42;44.13;99717.25;4475234;31;33676;-81
2021/07/03 07:58:03;;;;;;;8.68;5.12;;;;;;;26.26;44.09;99710.00;4474592;31;33590;-81
2021/07/03 08:00:30;;;;;;;6.65;5.15;;;;;;;26.10;45.30;99713.53;4462888;31;33796;-82
2021/07/03 08:02:58;;;;;;;5.45;4.93;;;;;;;26.04;45.08;99711.50;4465881;31;32923;-85
2021/07/03 08:05:26;;;;;;;5.85;5.25;;;;;;;26.15;45.86;99710.31;4466976;31;33335;-84
2021/07/03 08:07:53;;;;;;;5.18;4.70;;;;;;;26.20;44.22;99714.19;4465623;31;33172;-85
2021/07/03 08:10:21;;;;;;;5.45;4.85;;;;;;;26.26;45.07;99713.53;4457306;31;33148;-85
2021/07/03 08:12:49;;;;;;;5.70;5.00;;;;;;;26.38;43.79;99713.19;4464999;31;32494;-85
2021/07/03 08:15:17;;;;;;;6.30;5.70;;;;;;;26.39;43.29;99717.56;4464581;31;34443;-84
2021/07/03 08:17:45;;;;;;;5.60;5.10;;;;;;;26.53;42.96;99709.63;4453619;31;33043;-85
2021/07/03 08:20:18;;;;;;;7.82;4.72;;;;;;;27.04;42.92;99702.03;4465321;31;32412;-85
2021/07/03 08:22:48;;;;;;;6.37;4.68;;;;;;;27.07;41.84;99711.69;4478028;31;33350;-83
2021/07/03 08:25:17;;;;;;;7.68;5.05;;;;;;;27.22;42.36;99707.25;4463695;31;33378;-84
2021/07/03 08:27:47;;;;;;;5.12;4.62;;;;;;;27.17;41.25;99709.66;4476708;31;34017;-84
2021/07/03 08:30:16;;;;;;;5.70;4.47;;;;;;;27.22;41.56;99709.97;4461558;31;34903;-84
2021/07/03 08:32:44;;;;;;;6.53;4.68;;;;;;;27.28;41.30;99700.28;4465524;31;32514;-83
2021/07/03 08:35:13;;;;;;;6.30;4.62;;;;;;;27.73;40.18;99704.97;4455052;31;34280;-84
2021/07/03 08:37:42;;;;;;;5.20;4.70;;;;;;;27.66;39.81;99703.97;4462851;31;33757;-84
2021/07/03 08:40:10;;;;;;;5.20;4.20;;;;;;;27.44;42.01;99710.19;4482046;31;33540;-86
2021/07/03 08:42:38;;;;;;;8.65;4.53;;;;;;;27.97;40.26;99708.53;4469122;31;32533;-85
2021/07/03 08:45:07;;;;;;;5.95;3.95;;;;;;;28.09;39.42;99698.91;4458703;31;32691;-83
2021/07/03 08:47:44;;;;;;;5.18;3.72;;;;;;;27.92;39.07;99705.53;4462947;32;33717;-85
2021/07/03 08:50:15;;;;;;;4.60;4.20;;;;;;;28.02;39.40;99706.13;4476052;31;33516;-83
2021/07/03 08:52:43;;;;;;;5.60;4.03;;;;;;;28.14;38.70;99701.94;4471405;31;32727;-83
2021/07/03 08:55:23;;;;;;;5.22;4.20;;;;;;;28.05;38.45;99713.88;4466138;31;33222;-82
2021/07/03 08:57:53;;;;;;;5.20;4.80;;;;;;;28.34;39.01;99710.44;4477028;31;34864;-84
2021/07/03 09:00:29;;;;;;;5.68;4.30;;;;;;;28.39;38.65;99701.75;4459018;31;32629;-83
2021/07/03 09:02:57;;;;;;;5.70;4.15;;;;;;;28.69;37.75;99713.50;4468208;31;34128;-83
2021/07/03 09:05:31;;;;;;;4.57;3.70;;;;;;;28.86;37.61;99708.72;4461169;31;33427;-83
2021/07/03 09:08:06;;;;;;;6.75;4.07;;;;;;;28.79;37.62;99708.62;4480676;32;34074;-84
2021/07/03 09:10:37;;;;;;;4.93;4.20;;;;;;;28.88;38.33;99706.69;4482871;31;33909;-84
2021/07/03 09:13:06;;;;;;;4.20;3.90;;;;;;;29.13;36.94;99705.38;4477217;31;34004;-84
2021/07/03 09:15:36;;;;;;;5.78;4.70;;;;;;;29.10;36.96;99705.75;4478246;31;32805;-87
2021/07/03 09:18:06;;;;;;;9.70;3.83;;;;;;;29.14;35.72;99714.38;4477622;31;33730;-85
2021/07/03 09:20:54;;;;;;;4.62;4.20;;;;;;;28.75;36.41;99705.44;4471274;31;34105;-85
2021/07/03 09:23:24;;;;;;;5.53;4.72;;;;;;;28.35;37.79;99706.72;4481703;31;32455;-84
2021/07/03 09:25:52;;;;;;;6.62;4.57;;;;;;;28.36;37.09;99702.13;4470358;31;33184;-84
2021/07/03 09:28:29;;;;;;;8.35;4.87;;;;;;;27.95;38.65;99705.97;4469071;31;34014;-84
2021/07/03 09:31:00;;;;;;;5.40;4.90;;;;;;;27.51;39.03;99700.31;4467375;31;34445;-84
2021/07/03 09:33:30;;;;;;;5.12;4.37;;;;;;;27.61;38.32;99702.81;4475546;31;33008;-84
2021/07/03 09:36:07;;;;;;;7.47;4.35;;;;;;;27.54;39.22;99702.69;4468339;31;33131;-84
2021/07/03 09:38:43;;;;;;;6.10;4.15;;;;;;;28.13;38.71;99699.41;4471610;31;32967;-84
2021/07/03 09:41:22;;;;;;;5.80;4.68;;;;;;;28.02;37.68;99689.84;4478236;31;33782;-85
2021/07/03 09:43:50;;;;;;;8.43;5.12;;;;;;;28.03;36.18;99702.38;4447592;31;202968;-85
2021/07/03 09:46:30;;;;;;;8.68;4.95;;;;;;;27.77;37.96;99698.16;4491000;31;33641;-85
2021/07/03 09:49:05;;;;;;;11.18;4.55;;;;;;;27.79;39.27;99695.25;4461974;31;34460;-84
2021/07/03 09:51:40;;;;;;;5.32;4.10;;;;;;;28.15;37.10;99689.19;4469902;32;34749;-84
2021/07/03 09:54:10;;;;;;;5.15;4.45;;;;;;;28.15;39.17;99683.78;4456125;31;32214;-84
2021/07/03 09:56:39;;;;;;;4.45;4.05;;;;;;;28.56;37.34;99685.09;4476373;31;32864;-84
2021/07/03 09:59:07;;;;;;;4.57;3.37;;;;;;;28.54;37.43;99679.03;4470058;31;34152;-84
2021/07/03 10:01:43;;;;;;;5.10;4.60;;;;;;;28.41;37.49;99678.81;4460903;31;32578;-84
2021/07/03 10:04:12;;;;;;;5.97;4.82;;;;;;;28.71;37.70;99662.53;4454987;31;32336;-83
2021/07/03 10:06:44;;;;;;;6.60;4.00;;;;;;;28.56;37.08;99659.81;4467167;31;34568;-84
2021/07/03 10:09:23;;;;;;;4.72;4.20;;;;;;;28.55;37.47;99652.69;4481816;31;35141;-83
2021/07/03 10:11:52;;;;;;;4.82;4.20;;;;;;;28.29;37.69;99656.66;4466283;31;33889;-85
2021/07/03 10:14:21;;;;;;;4.90;4.50;;;;;;;28.24;37.73;99661.78;4456754;31;32659;-86
2021/07/03 10:17:05;;;;;;;6.95;4.70;;;;;;;28.00;38.14;99651.16;4459614;31;33722;-86
2021/07/03 10:19:35;;;;;;;5.70;4.35;;;;;;;28.58;36.62;99657.75;4467874;31;34623;-86
2021/07/03 10:22:33;;;;;;;4.43;3.95;;;;;;;28.91;37.22;99641.06;4466570;31;33187;-86
2021/07/03 10:25:10;;;;;;;4.75;3.58;;;;;;;29.12;36.24;99643.03;4474072;31;31132;-86
2021/07/03 10:27:52;;;;;;;5.00;4.10;;;;;;;29.12;35.68;99654.75;4487272;31;34206;-85
2021/07/03 10:30:29;;;;;;;4.68;3.92;;;;;;;29.11;35.50;99663.94;4475062;31;33672;-85
2021/07/03 10:33:05;;;;;;;4.75;4.22;;;;;;;29.39;34.38;99649.59;4456854;32;34106;-86
2021/07/03 10:35:44;;;;;;;7.90;4.47;;;;;;;29.43;33.94;99654.47;4463963;31;32672;-84
2021/07/03 10:38:25;;;;;;;4.20;3.80;;;;;;;29.21;35.38;99658.22;4449439;31;32911;-84
2021/07/03 10:40:55;;;;;;;5.40;3.90;;;;;;;29.31;36.22;99653.31;4478302;31;33307;-85
2021/07/03 10:43:23;;;;;;;9.63;4.07;;;;;;;29.32;34.67;99653.09;4466768;31;33146;-85
2021/07/03 10:45:53;;;;;;;4.78;3.95;;;;;;;29.30;34.89;99651.63;4469876;31;33946;-84
2021/07/03 10:48:23;;;;;;;5.62;4.15;;;;;;;28.86;34.18;99652.50;4463859;32;33054;-85
2021/07/03 10:50:54;;;;;;;3.75;3.45;;;;;;;28.24;36.28;99650.94;4454822;31;34381;-85
2021/07/03 10:53:23;;;;;;;5.95;3.62;;;;;;;28.22;35.60;99663.84;4478388;31;32611;-85
2021/07/03 10:55:50;;;;;;;3.87;3.55;;;;;;;28.19;35.93;99653.34;4481801;31;34993;-86
2021/07/03 10:58:28;;;;;;;4.70;4.03;;;;;;;28.12;36.07;99657.84;4452067;31;34349;-85
2021/07/03 11:01:10;;;;;;;5.10;4.05;;;;;;;28.06;37.04;99664.88;4487789;31;34828;-85
2021/07/03 11:03:43;;;;;;;6.65;4.53;;;;;;;28.06;34.94;99653.16;4474279;31;33882;-85
2021/07/03 11:06:13;;;;;;;6.20;4.20;;;;;;;27.83;37.71;99657.78;4473120;31;33376;-85
2021/07/03 11:08:40;;;;;;;6.65;4.57;;;;;;;27.74;37.08;99659.69;4466726;31;33212;-85
2021/07/03 11:11:09;;;;;;;5.53;4.37;;;;;;;27.88;36.82;99658.06;4454956;31;34243;-86
2021/07/03 11:13:37;;;;;;;5.75;4.57;;;;;;;27.97;37.02;99649.66;4480081;31;33778;-86
2021/07/03 11:16:10;;;;;;;4.53;4.00;;;;;;;28.28;36.85;99652.25;4481397;31;32980;-85
2021/07/03 11:18:43;;;;;;;5.75;4.22;;;;;;;28.26;36.66;99635.31;4468407;31;34643;-85
2021/07/03 11:21:13;;;;;;;4.70;4.20;;;;;;;28.07;36.90;99638.56;4466912;31;33061;-85
2021/07/03 11:23:41;;;;;;;4.32;3.90;;;;;;;28.65;35.77;99631.53;4467370;31;32652;-85
2021/07/03 11:26:14;;;;;;;6.22;4.70;;;;;;;28.97;35.42;99637.63;4481348;31;33028;-85
2021/07/03 11:28:46;;;;;;;3.72;3.30;;;;;;;29.12;34.02;99627.56;4471472;31;33895;-84
2021/07/03 11:31:14;;;;;;;;;;;;;;;28.98;34.11;99625.72;4465681;31;34330;-84
2021/07/03 11:33:41;;;;;;;7.47;4.15;;;;;;;28.73;34.57;99612.41;4466363;32;34767;-85
2021/07/03 11:36:11;;;;;;;4.32;3.95;;;;;;;28.50;35.48;99614.41;4467328;31;33677;-84
2021/07/03 11:38:39;;;;;;;4.93;4.43;;;;;;;28.73;35.67;99608.88;4461227;32;33888;-84
2021/07/03 11:41:07;;;;;;;4.00;3.60;;;;;;;28.51;34.98;99608.75;4466826;32;34972;-84
2021/07/03 11:43:35;;;;;;;5.95;3.80;;;;;;;28.48;33.75;99614.56;4474898;32;33825;-84
2021/07/03 11:46:03;;;;;;;6.45;3.75;;;;;;;28.98;34.44;99606.69;4466698;31;33039;-85